Time;durP1;ratioP1;P1;durP2;ratioP2;P2;SDS_P1;SDS_P2;PMS_P1;PMS_P2;Temp;Humidity;BMP_temperature;BMP_pressure;BME280_temperature;BME280_humidity;BME280_pressure;Samples;Min_cycle;Max_cycle;Signal;HPM_P1;HPM_P2
2022/07/04 05:36:59;;;;;;;5.75;3.85;;;;;;;;;;7396961;19;20681;-83
2022/07/04 05:39:24;;;;;;;8.85;5.03;;;;;;;;;;7395336;19;20475;-82
2022/07/04 05:41:49;;;;;;;7.57;4.57;;;;;;;;;;7412378;19;20188;-81
2022/07/04 05:44:15;;;;;;;7.05;4.60;;;;;;;;;;7418888;19;20429;-82
2022/07/04 05:46:40;;;;;;;5.97;3.83;;;;;;;;;;7398092;19;20740;-82
2022/07/04 05:49:05;;;;;;;6.75;4.07;;;;;;;;;;7396065;19;20117;-84
2022/07/04 05:51:30;;;;;;;4.93;4.10;;;;;;;;;;7393725;19;20176;-80
2022/07/04 05:53:56;;;;;;;3.65;3.33;;;;;;;;;;7391891;19;20155;-81
2022/07/04 05:56:21;;;;;;;3.72;3.30;;;;;;;;;;7397487;19;20167;-80
2022/07/04 05:58:47;;;;;;;4.78;3.92;;;;;;;;;;7396073;19;20508;-80
2022/07/04 06:01:13;;;;;;;3.90;3.50;;;;;;;;;;7397706;19;20202;-81
2022/07/04 06:03:38;;;;;;;4.57;4.18;;;;;;;;;;7395805;19;20140;-80
2022/07/04 06:06:04;;;;;;;5.10;3.75;;;;;;;;;;7387624;19;20141;-80
2022/07/04 06:08:30;;;;;;;4.15;3.50;;;;;;;;;;7398307;19;20523;-81
2022/07/04 06:10:56;;;;;;;3.90;2.97;;;;;;;;;;7393141;19;20189;-80
2022/07/04 06:13:21;;;;;;;3.60;3.30;;;;;;;;;;7397462;19;20181;-81
2022/07/04 06:15:47;;;;;;;7.30;3.83;;;;;;;;;;7392591;19;20149;-80
2022/07/04 06:18:12;;;;;;;4.38;3.63;;;;;;;;;;7399169;19;20466;-83
2022/07/04 06:20:39;;;;;;;5.10;4.10;;;;;;;;;;7394339;19;20176;-82
2022/07/04 06:23:05;;;;;;;5.47;3.33;;;;;;;;;;7396537;19;20158;-78
2022/07/04 06:25:30;;;;;;;5.07;3.03;;;;;;;;;;7387906;19;20152;-77
2022/07/04 06:27:56;;;;;;;3.72;3.25;;;;;;;;;;7389143;19;20477;-79
2022/07/04 06:30:21;;;;;;;4.70;3.03;;;;;;;;;;7394160;19;20168;-80
2022/07/04 06:32:53;;;;;;;4.18;3.25;;;;;;;;;;7391224;19;20177;-80
2022/07/04 06:38:07;;;;;;;6.53;3.28;;;;;;;;;;7399086;19;20232;-79
2022/07/04 06:40:33;;;;;;;3.55;3.05;;;;;;;;;;7395170;19;20543;-80
2022/07/04 06:42:59;;;;;;;4.43;2.92;;;;;;;;;;7389510;19;20145;-79
2022/07/04 06:45:24;;;;;;;3.92;2.83;;;;;;;;;;7391492;19;20807;-80
2022/07/04 06:47:50;;;;;;;3.88;3.20;;;;;;;;;;7388594;19;20145;-80
2022/07/04 06:50:15;;;;;;;4.32;3.08;;;;;;;;;;7389587;19;20164;-79
2022/07/04 06:52:41;;;;;;;3.13;2.53;;;;;;;;;;7390134;19;20159;-78
2022/07/04 06:55:07;;;;;;;3.22;2.88;;;;;;;;;;7396718;19;20168;-80
2022/07/04 06:57:32;;;;;;;4.38;2.97;;;;;;;;;;7388030;19;20141;-80
2022/07/04 06:59:58;;;;;;;3.40;2.75;;;;;;;;;;7387861;19;20145;-80
2022/07/04 07:02:23;;;;;;;4.38;2.63;;;;;;;;;;7384002;19;20136;-79
2022/07/04 07:04:48;;;;;;;3.55;2.70;;;;;;;;;;7385997;19;20655;-78
2022/07/04 07:07:13;;;;;;;3.75;2.72;;;;;;;;;;7381268;19;20140;-81
2022/07/04 07:09:39;;;;;;;4.68;2.72;;;;;;;;;;7382872;19;20124;-81
2022/07/04 07:12:04;;;;;;;2.90;2.67;;;;;;;;;;7380949;19;20172;-78
2022/07/04 07:14:30;;;;;;;5.35;3.33;;;;;;;;;;7374791;19;20153;-80
2022/07/04 07:16:55;;;;;;;4.88;3.30;;;;;;;;;;7382559;19;20208;-79
2022/07/04 07:19:20;;;;;;;3.67;3.38;;;;;;;;;;7381263;19;20166;-79
2022/07/04 07:21:46;;;;;;;4.80;3.72;;;;;;;;;;7395429;19;20173;-78
2022/07/04 07:24:11;;;;;;;4.30;3.72;;;;;;;;;;7418830;19;20120;-78
2022/07/04 07:26:36;;;;;;;5.78;4.22;;;;;;;;;;7417386;19;20158;-77
2022/07/04 07:29:02;;;;;;;4.43;4.03;;;;;;;;;;7422833;19;20144;-77
2022/07/04 07:31:27;;;;;;;5.18;4.28;;;;;;;;;;7406354;19;20153;-77
2022/07/04 07:33:53;;;;;;;4.88;4.05;;;;;;;;;;7386800;19;20148;-78
2022/07/04 07:36:18;;;;;;;5.47;4.43;;;;;;;;;;7385764;19;20141;-78
2022/07/04 07:38:43;;;;;;;6.05;4.60;;;;;;;;;;7383928;19;20157;-79
2022/07/04 07:41:10;;;;;;;5.63;4.38;;;;;;;;;;7388601;19;20180;-79
2022/07/04 07:43:36;;;;;;;8.00;4.15;;;;;;;;;;7381013;19;20972;-79
2022/07/04 07:46:02;;;;;;;4.78;4.05;;;;;;;;;;7384883;19;20157;-78
2022/07/04 07:48:27;;;;;;;4.70;3.85;;;;;;;;;;7381694;19;20610;-80
2022/07/04 07:50:52;;;;;;;4.85;3.80;;;;;;;;;;7381417;19;20637;-79
2022/07/04 07:53:18;;;;;;;5.10;3.53;;;;;;;;;;7388155;19;20132;-78
2022/07/04 07:55:43;;;;;;;5.78;3.45;;;;;;;;;;7390870;19;20152;-80
2022/07/04 07:58:09;;;;;;;3.75;3.45;;;;;;;;;;7386365;19;20578;-79
2022/07/04 08:00:34;;;;;;;5.63;3.50;;;;;;;;;;7391177;19;20168;-79
2022/07/04 08:05:43;;;;;;;4.75;3.80;;;;;;;;;;7388405;19;20208;-79
2022/07/04 08:08:10;;;;;;;3.65;3.35;;;;;;;;;;7390253;19;20153;-80
2022/07/04 08:10:37;;;;;;;4.82;3.22;;;;;;;;;;7386937;19;20169;-79
2022/07/04 08:13:02;;;;;;;3.72;2.83;;;;;;;;;;7392736;19;20133;-79
2022/07/04 08:15:28;;;;;;;5.25;3.38;;;;;;;;;;7387707;19;20481;-80
2022/07/04 08:17:53;;;;;;;3.88;3.17;;;;;;;;;;7390985;19;20117;-80
2022/07/04 08:20:19;;;;;;;3.65;3.03;;;;;;;;;;7389354;19;20196;-79
2022/07/04 08:22:44;;;;;;;4.30;3.13;;;;;;;;;;7390284;19;20152;-80
2022/07/04 08:25:09;;;;;;;4.38;3.33;;;;;;;;;;7391572;19;20144;-79
2022/07/04 08:27:35;;;;;;;5.63;3.40;;;;;;;;;;7392896;19;20151;-81
2022/07/04 08:30:00;;;;;;;5.18;3.85;;;;;;;;;;7392035;19;20152;-79
2022/07/04 08:32:26;;;;;;;3.53;2.95;;;;;;;;;;7386324;19;20152;-80
2022/07/04 08:34:52;;;;;;;5.10;3.38;;;;;;;;;;7387956;19;20182;-79
2022/07/04 08:37:17;;;;;;;5.18;3.40;;;;;;;;;;7384156;19;20156;-79
2022/07/04 08:39:43;;;;;;;5.93;3.60;;;;;;;;;;7384320;19;20149;-80
2022/07/04 08:42:13;;;;;;;5.10;3.55;;;;;;;;;;7380268;19;20172;-79
2022/07/04 08:44:41;;;;;;;4.40;3.45;;;;;;;;;;7388722;19;20666;-78
2022/07/04 08:47:09;;;;;;;5.43;3.10;;;;;;;;;;7385588;19;20147;-78
2022/07/04 08:49:34;;;;;;;3.58;3.17;;;;;;;;;;7385272;19;20140;-78
2022/07/04 08:52:04;;;;;;;4.20;3.70;;;;;;;;;;7378030;19;20185;-79
2022/07/04 08:59:59;;;;;;;5.78;3.28;;;;;;;;;;7385596;19;20154;-79
2022/07/04 09:02:27;;;;;;;4.45;3.25;;;;;;;;;;7383122;19;20156;-79
2022/07/04 09:04:53;;;;;;;4.80;3.38;;;;;;;;;;7383467;19;20643;-77
2022/07/04 09:07:18;;;;;;;4.18;3.33;;;;;;;;;;7380099;19;20394;-80
2022/07/04 09:09:44;;;;;;;7.78;3.40;;;;;;;;;;7391024;19;20153;-78
2022/07/04 09:12:10;;;;;;;4.97;3.58;;;;;;;;;;7387832;19;20168;-80
2022/07/04 09:14:36;;;;;;;4.30;3.35;;;;;;;;;;7382196;19;20202;-80
2022/07/04 09:17:01;;;;;;;3.63;3.33;;;;;;;;;;7382236;19;20707;-79
2022/07/04 09:19:27;;;;;;;4.25;3.00;;;;;;;;;;7384559;19;20163;-79
2022/07/04 09:21:52;;;;;;;5.28;3.28;;;;;;;;;;7381930;19;20157;-79
2022/07/04 09:24:44;;;;;;;4.93;3.08;;;;;;;;;;7386126;19;20165;-79
2022/07/04 09:27:09;;;;;;;4.07;3.05;;;;;;;;;;7385407;19;20136;-79
2022/07/04 09:29:41;;;;;;;3.75;2.72;;;;;;;;;;7380208;19;20160;-79
2022/07/04 09:32:06;;;;;;;3.50;2.78;;;;;;;;;;7377615;19;20179;-79
2022/07/04 09:34:31;;;;;;;2.72;2.47;;;;;;;;;;7388897;19;20129;-80
2022/07/04 09:36:58;;;;;;;4.00;2.90;;;;;;;;;;7385746;19;20402;-80
2022/07/04 09:39:24;;;;;;;3.97;2.83;;;;;;;;;;7387189;19;21900;-80
2022/07/04 09:41:57;;;;;;;3.63;2.78;;;;;;;;;;7380082;19;20186;-78
2022/07/04 09:44:25;;;;;;;4.18;3.28;;;;;;;;;;7390769;19;20228;-79
2022/07/04 09:46:51;;;;;;;7.15;3.28;;;;;;;;;;7388496;19;20208;-80
2022/07/04 09:49:17;;;;;;;18.40;3.97;;;;;;;;;;7380544;19;20658;-78
2022/07/04 09:51:50;;;;;;;6.65;3.13;;;;;;;;;;7383108;19;20157;-79
2022/07/04 09:54:31;;;;;;;4.50;2.85;;;;;;;;;;7365564;19;20162;-79
2022/07/04 09:56:58;;;;;;;4.15;3.03;;;;;;;;;;7381878;19;20160;-80
2022/07/04 09:59:25;;;;;;;4.75;3.00;;;;;;;;;;7405759;19;20137;-77
2022/07/04 10:01:50;;;;;;;3.10;2.40;;;;;;;;;;7410990;19;20372;-78
2022/07/04 10:04:16;;;;;;;2.92;2.60;;;;;;;;;;7407797;19;20160;-78
2022/07/04 10:06:42;;;;;;;2.95;2.60;;;;;;;;;;7382354;19;20145;-79
2022/07/04 10:09:12;;;;;;;4.25;2.80;;;;;;;;;;7382200;19;20141;-78
2022/07/04 10:11:39;;;;;;;2.78;2.47;;;;;;;;;;7377285;19;20662;-77
2022/07/04 10:14:09;;;;;;;2.70;2.50;;;;;;;;;;7380140;19;20149;-79
2022/07/04 10:16:36;;;;;;;4.85;2.65;;;;;;;;;;7381012;19;20156;-79
2022/07/04 10:19:02;;;;;;;4.57;2.70;;;;;;;;;;7382641;19;20133;-78
2022/07/04 10:21:28;;;;;;;5.50;3.00;;;;;;;;;;7379218;19;20179;-79
2022/07/04 10:23:54;;;;;;;4.97;2.65;;;;;;;;;;7388373;19;20602;-79
2022/07/04 10:26:20;;;;;;;2.90;2.55;;;;;;;;;;7391063;19;20138;-80
2022/07/04 10:28:47;;;;;;;5.80;3.00;;;;;;;;;;7387476;19;20149;-79
2022/07/04 10:31:13;;;;;;;6.07;2.58;;;;;;;;;;7385422;19;20172;-78
2022/07/04 10:33:39;;;;;;;3.53;2.97;;;;;;;;;;7376605;19;20213;-78
2022/07/04 10:36:16;;;;;;;4.03;3.17;;;;;;;;;;7382623;19;20142;-79
2022/07/04 10:38:53;;;;;;;4.93;2.72;;;;;;;;;;7387359;19;20139;-79
2022/07/04 10:41:21;;;;;;;5.25;3.33;;;;;;;;;;7379062;19;20148;-78
2022/07/04 10:44:00;;;;;;;4.07;3.75;;;;;;;;;;7384230;19;20537;-78
2022/07/04 10:46:32;;;;;;;3.72;3.38;;;;;;;;;;7388329;19;20152;-79
2022/07/04 10:49:14;;;;;;;3.83;3.13;;;;;;;;;;7384952;19;20160;-79
2022/07/04 10:51:45;;;;;;;3.80;3.20;;;;;;;;;;7384315;19;20214;-78
2022/07/04 10:54:10;;;;;;;4.20;3.30;;;;;;;;;;7380299;19;20482;-78
2022/07/04 10:56:39;;;;;;;5.20;3.15;;;;;;;;;;7380613;19;20646;-78
2022/07/04 10:59:13;;;;;;;6.07;3.38;;;;;;;;;;7388225;19;20611;-79
2022/07/04 11:01:38;;;;;;;4.30;3.75;;;;;;;;;;7387038;19;20176;-79
2022/07/04 11:04:04;;;;;;;4.72;3.15;;;;;;;;;;7388288;19;20152;-79
2022/07/04 11:06:32;;;;;;;3.78;3.42;;;;;;;;;;7374169;19;20175;-78
2022/07/04 11:09:30;;;;;;;4.25;3.38;;;;;;;;;;7381366;19;20125;-79
2022/07/04 11:11:56;;;;;;;4.47;3.08;;;;;;;;;;7379140;19;20169;-78
2022/07/04 11:14:45;;;;;;;3.92;3.17;;;;;;;;;;7380066;19;20156;-78
2022/07/04 11:17:12;;;;;;;3.97;3.67;;;;;;;;;;7390303;19;20673;-78
2022/07/04 11:19:38;;;;;;;4.50;3.45;;;;;;;;;;7394921;19;20128;-77
2022/07/04 11:22:05;;;;;;;4.45;2.97;;;;;;;;;;7415741;19;20192;-79
2022/07/04 11:24:31;;;;;;;3.70;3.10;;;;;;;;;;7398765;19;20165;-78
2022/07/04 11:26:56;;;;;;;3.88;3.20;;;;;;;;;;7410299;19;20168;-77
2022/07/04 11:29:22;;;;;;;5.75;4.05;;;;;;;;;;7390295;19;20141;-80
2022/07/04 11:31:49;;;;;;;5.38;3.63;;;;;;;;;;7387289;19;20611;-80
2022/07/04 11:34:15;;;;;;;4.57;3.75;;;;;;;;;;7378111;19;20137;-80
2022/07/04 11:36:47;;;;;;;5.00;3.38;;;;;;;;;;7388256;19;20657;-80
2022/07/04 11:39:19;;;;;;;4.00;3.70;;;;;;;;;;7378958;19;20149;-81
2022/07/04 11:47:18;;;;;;;4.38;3.67;;;;;;;;;;7386577;19;20136;-78
2022/07/04 11:49:57;;;;;;;7.05;3.92;;;;;;;;;;7379750;19;20155;-78
2022/07/04 11:52:27;;;;;;;4.00;2.97;;;;;;;;;;7383008;19;20143;-79
2022/07/04 11:54:52;;;;;;;3.25;2.95;;;;;;;;;;7383471;19;20168;-79
2022/07/04 11:57:27;;;;;;;4.47;4.07;;;;;;;;;;7380940;19;20137;-78
2022/07/04 11:59:58;;;;;;;4.90;3.30;;;;;;;;;;7380036;19;20148;-79
2022/07/04 12:02:25;;;;;;;3.50;3.10;;;;;;;;;;7379885;19;20606;-80
2022/07/04 12:04:51;;;;;;;4.28;3.35;;;;;;;;;;7382589;19;20380;-79
2022/07/04 12:07:18;;;;;;;3.30;3.00;;;;;;;;;;7379142;19;20152;-79
2022/07/04 12:09:45;;;;;;;3.85;3.17;;;;;;;;;;7382299;19;20177;-79
2022/07/04 12:12:12;;;;;;;4.38;2.97;;;;;;;;;;7378082;19;20149;-79
2022/07/04 12:14:37;;;;;;;2.90;2.60;;;;;;;;;;7382862;19;20208;-79
2022/07/04 12:17:17;;;;;;;3.35;2.80;;;;;;;;;;7378028;19;20663;-79
2022/07/04 12:19:50;;;;;;;4.53;2.78;;;;;;;;;;7382456;19;20728;-79
2022/07/04 12:22:35;;;;;;;2.90;2.60;;;;;;;;;;7376304;19;20661;-79
2022/07/04 12:25:01;;;;;;;4.18;2.85;;;;;;;;;;7381326;19;20136;-79
2022/07/04 12:27:27;;;;;;;3.55;3.00;;;;;;;;;;7374430;19;20635;-78
2022/07/04 12:29:53;;;;;;;5.00;3.00;;;;;;;;;;7380405;19;20599;-79
2022/07/04 12:32:19;;;;;;;4.70;2.78;;;;;;;;;;7381081;19;20501;-79
2022/07/04 12:34:45;;;;;;;3.30;2.35;;;;;;;;;;7374662;19;20156;-79
2022/07/04 12:37:12;;;;;;;3.53;2.30;;;;;;;;;;7377528;19;20515;-79
2022/07/04 12:39:39;;;;;;;3.65;2.40;;;;;;;;;;7383265;19;20160;-80
2022/07/04 12:42:05;;;;;;;2.90;2.70;;;;;;;;;;7373986;19;20196;-79
2022/07/04 12:44:30;;;;;;;4.22;3.10;;;;;;;;;;7391357;19;20129;-80
2022/07/04 12:46:56;;;;;;;3.10;2.53;;;;;;;;;;7384660;19;20136;-81
2022/07/04 12:49:22;;;;;;;4.43;3.10;;;;;;;;;;7384642;19;20151;-82
2022/07/04 12:51:47;;;;;;;4.63;3.20;;;;;;;;;;7380218;19;20172;-82
2022/07/04 12:54:12;;;;;;;3.17;2.72;;;;;;;;;;7384394;19;20141;-80
2022/07/04 12:56:42;;;;;;;3.85;2.75;;;;;;;;;;7390349;19;20233;-80
2022/07/04 12:59:10;;;;;;;2.70;2.50;;;;;;;;;;7386864;19;20165;-80
2022/07/04 13:01:36;;;;;;;2.65;2.45;;;;;;;;;;7385664;19;20152;-81
2022/07/04 13:04:02;;;;;;;3.42;2.78;;;;;;;;;;7391748;19;20148;-80
2022/07/04 13:06:27;;;;;;;5.47;3.35;;;;;;;;;;7388018;19;20144;-79
2022/07/04 13:08:54;;;;;;;3.65;2.50;;;;;;;;;;7390050;19;20147;-80
2022/07/04 13:14:04;;;;;;;3.55;2.90;;;;;;;;;;7387348;19;20234;-80
2022/07/04 13:16:29;;;;;;;2.90;2.58;;;;;;;;;;7389497;19;20148;-80
2022/07/04 13:18:54;;;;;;;2.92;2.40;;;;;;;;;;7396022;19;20136;-80
2022/07/04 13:21:20;;;;;;;2.65;2.45;;;;;;;;;;7390810;19;20144;-80
2022/07/04 13:23:45;;;;;;;2.72;2.40;;;;;;;;;;7389943;19;20136;-80
2022/07/04 13:26:10;;;;;;;2.47;2.28;;;;;;;;;;7385548;19;20203;-80
2022/07/04 13:28:35;;;;;;;2.60;2.40;;;;;;;;;;7383950;19;20129;-80
2022/07/04 13:31:01;;;;;;;3.47;2.83;;;;;;;;;;7406742;19;20155;-79
2022/07/04 13:33:27;;;;;;;6.63;2.33;;;;;;;;;;7415461;19;20213;-80
2022/07/04 13:35:52;;;;;;;2.55;2.35;;;;;;;;;;7415730;19;20140;-79
2022/07/04 13:38:18;;;;;;;2.45;2.25;;;;;;;;;;7411864;19;20152;-78
2022/07/04 13:40:44;;;;;;;2.67;2.10;;;;;;;;;;7398317;19;20660;-79
2022/07/04 13:43:10;;;;;;;2.83;2.08;;;;;;;;;;7387614;19;20165;-79
2022/07/04 13:45:36;;;;;;;2.60;1.92;;;;;;;;;;7387521;19;20191;-79
2022/07/04 13:48:01;;;;;;;4.22;3.15;;;;;;;;;;7387529;19;20121;-81
2022/07/04 13:50:27;;;;;;;2.33;1.95;;;;;;;;;;7388195;19;20202;-81
2022/07/04 13:52:52;;;;;;;2.72;2.13;;;;;;;;;;7386815;19;20163;-81
2022/07/04 13:55:17;;;;;;;2.30;1.75;;;;;;;;;;7386478;19;20165;-82
2022/07/04 13:57:43;;;;;;;2.70;1.95;;;;;;;;;;7391034;19;20608;-81
2022/07/04 14:00:09;;;;;;;2.75;1.83;;;;;;;;;;7390512;19;20132;-81
2022/07/04 14:02:34;;;;;;;2.40;1.80;;;;;;;;;;7391828;19;20209;-82
2022/07/04 14:05:00;;;;;;;2.85;2.00;;;;;;;;;;7388344;19;20177;-81
2022/07/04 14:07:25;;;;;;;2.65;1.45;;;;;;;;;;7394128;19;20207;-81
2022/07/04 14:09:50;;;;;;;4.60;2.22;;;;;;;;;;7387224;19;20143;-82
2022/07/04 14:12:16;;;;;;;2.75;1.83;;;;;;;;;;7389393;19;20646;-81
2022/07/04 14:14:42;;;;;;;3.05;1.92;;;;;;;;;;7403001;19;20247;-82
2022/07/04 14:17:07;;;;;;;2.20;1.83;;;;;;;;;;7419734;19;20122;-82
2022/07/04 14:19:32;;;;;;;5.38;2.47;;;;;;;;;;7402845;19;20189;-82
2022/07/04 14:21:58;;;;;;;3.25;2.33;;;;;;;;;;7383283;19;20200;-81
2022/07/04 14:24:25;;;;;;;2.20;2.00;;;;;;;;;;7388505;19;20220;-82
2022/07/04 14:26:51;;;;;;;4.53;2.03;;;;;;;;;;7386992;19;20162;-81
2022/07/04 14:29:16;;;;;;;3.38;2.22;;;;;;;;;;7380561;19;20172;-80
2022/07/04 14:31:42;;;;;;;3.05;2.22;;;;;;;;;;7382814;19;20365;-82
2022/07/04 14:34:10;;;;;;;4.45;2.75;;;;;;;;;;7386187;19;20135;-82
2022/07/04 14:36:35;;;;;;;3.75;2.63;;;;;;;;;;7380814;19;20157;-83
2022/07/04 14:39:01;;;;;;;3.53;2.20;;;;;;;;;;7382728;19;20148;-82
2022/07/04 14:41:26;;;;;;;5.05;2.50;;;;;;;;;;7386421;19;20176;-82
2022/07/04 14:43:52;;;;;;;4.07;2.55;;;;;;;;;;7390435;19;20522;-82
2022/07/04 14:46:17;;;;;;;4.60;2.40;;;;;;;;;;7393601;19;20145;-82
2022/07/04 14:48:42;;;;;;;3.33;2.80;;;;;;;;;;7389839;19;20136;-83
2022/07/04 14:51:07;;;;;;;5.18;2.88;;;;;;;;;;7388410;19;20176;-82
2022/07/04 14:53:33;;;;;;;4.03;3.20;;;;;;;;;;7384891;19;20149;-82
2022/07/04 14:55:59;;;;;;;5.88;3.70;;;;;;;;;;7389230;19;20144;-81
2022/07/04 14:58:24;;;;;;;6.55;3.47;;;;;;;;;;7393820;19;20176;-81
2022/07/04 15:00:49;;;;;;;3.30;3.00;;;;;;;;;;7389933;19;20193;-82
2022/07/04 15:03:16;;;;;;;6.05;3.17;;;;;;;;;;7395980;19;20129;-82
2022/07/04 15:05:41;;;;;;;4.68;2.65;;;;;;;;;;7386806;19;20152;-81
2022/07/04 15:08:07;;;;;;;6.30;3.20;;;;;;;;;;7386958;19;20567;-82
2022/07/04 15:10:32;;;;;;;7.65;2.90;;;;;;;;;;7386800;19;20200;-82
2022/07/04 15:12:57;;;;;;;2.75;2.55;;;;;;;;;;7385773;19;20533;-82
2022/07/04 15:15:23;;;;;;;5.38;2.70;;;;;;;;;;7382767;19;20683;-82
2022/07/04 15:17:48;;;;;;;5.18;2.97;;;;;;;;;;7387268;19;20228;-83
2022/07/04 15:25:42;;;;;;;5.15;2.92;;;;;;;;;;7391217;19;20474;-82
2022/07/04 15:28:07;;;;;;;2.72;2.50;;;;;;;;;;7387272;19;20196;-82
2022/07/04 15:30:33;;;;;;;4.43;2.80;;;;;;;;;;7386891;19;20144;-82
2022/07/04 15:32:58;;;;;;;5.15;2.50;;;;;;;;;;7379354;19;21153;-82
2022/07/04 15:35:23;;;;;;;2.63;2.05;;;;;;;;;;7382709;19;20149;-82
2022/07/04 15:37:49;;;;;;;3.45;2.78;;;;;;;;;;7386689;19;20152;-83
2022/07/04 15:40:14;;;;;;;4.05;2.85;;;;;;;;;;7381943;19;20155;-81
2022/07/04 15:42:39;;;;;;;2.60;2.40;;;;;;;;;;7385347;19;20137;-81
2022/07/04 15:45:05;;;;;;;2.45;2.25;;;;;;;;;;7384684;19;20129;-80
2022/07/04 15:47:30;;;;;;;3.90;2.42;;;;;;;;;;7388517;19;20164;-81
2022/07/04 15:49:56;;;;;;;3.40;2.35;;;;;;;;;;7389439;19;20613;-82
2022/07/04 15:52:22;;;;;;;2.90;2.60;;;;;;;;;;7389026;19;20170;-82
2022/07/04 15:54:48;;;;;;;4.25;2.30;;;;;;;;;;7381525;19;20517;-82
2022/07/04 15:57:13;;;;;;;3.05;2.75;;;;;;;;;;7387379;19;20164;-82
2022/07/04 15:59:39;;;;;;;3.72;2.78;;;;;;;;;;7387696;19;20140;-82
2022/07/04 16:02:04;;;;;;;4.68;2.55;;;;;;;;;;7377164;19;20169;-81
2022/07/04 16:04:29;;;;;;;5.63;2.65;;;;;;;;;;7384472;19;20121;-81
2022/07/04 16:06:55;;;;;;;3.92;2.55;;;;;;;;;;7380845;19;20658;-81
2022/07/04 16:09:20;;;;;;;4.30;2.67;;;;;;;;;;7375615;19;20483;-80
2022/07/04 16:11:50;;;;;;;3.38;2.20;;;;;;;;;;7381163;19;20208;-80
2022/07/04 16:14:16;;;;;;;3.35;2.28;;;;;;;;;;7388863;19;20121;-81
2022/07/04 16:16:41;;;;;;;2.50;2.00;;;;;;;;;;7384878;19;20164;-81
2022/07/04 16:19:06;;;;;;;3.10;2.38;;;;;;;;;;7384229;19;20152;-81
2022/07/04 16:21:32;;;;;;;3.13;2.17;;;;;;;;;;7386945;19;20196;-81
2022/07/04 16:23:57;;;;;;;3.55;2.22;;;;;;;;;;7393388;19;20117;-80
2022/07/04 16:26:22;;;;;;;2.88;2.38;;;;;;;;;;7386395;19;20151;-82
2022/07/04 16:28:48;;;;;;;3.70;2.17;;;;;;;;;;7390519;19;20137;-82
2022/07/04 16:31:13;;;;;;;2.80;2.38;;;;;;;;;;7384773;19;20526;-83
2022/07/04 16:33:39;;;;;;;4.47;2.40;;;;;;;;;;7380028;19;20160;-83
2022/07/04 16:36:04;;;;;;;2.58;2.20;;;;;;;;;;7386432;19;20149;-82
2022/07/04 16:38:30;;;;;;;3.60;2.38;;;;;;;;;;7387579;19;20148;-82
2022/07/04 16:40:55;;;;;;;3.03;1.95;;;;;;;;;;7377856;19;20674;-83
2022/07/04 16:43:21;;;;;;;2.30;2.10;;;;;;;;;;7379005;19;20536;-83
2022/07/04 16:45:46;;;;;;;3.90;1.90;;;;;;;;;;7387403;19;20136;-83
2022/07/04 16:48:11;;;;;;;2.58;2.00;;;;;;;;;;7380210;19;20527;-82
2022/07/04 16:50:39;;;;;;;5.38;2.55;;;;;;;;;;7379482;19;20179;-83
2022/07/04 16:53:05;;;;;;;2.70;2.10;;;;;;;;;;7382518;19;20504;-82
2022/07/04 16:55:30;;;;;;;1.95;1.75;;;;;;;;;;7389295;19;20236;-82
2022/07/04 16:57:56;;;;;;;2.20;2.00;;;;;;;;;;7377359;19;20144;-83
2022/07/04 17:00:21;;;;;;;2.78;1.98;;;;;;;;;;7373174;19;20161;-83
2022/07/04 17:02:46;;;;;;;3.45;2.08;;;;;;;;;;7373976;19;20176;-81
2022/07/04 17:05:12;;;;;;;2.65;2.33;;;;;;;;;;7381468;19;20121;-81
2022/07/04 17:07:38;;;;;;;3.83;2.67;;;;;;;;;;7369451;19;20145;-81
2022/07/04 17:10:03;;;;;;;2.90;2.20;;;;;;;;;;7368548;19;20225;-82
2022/07/04 17:12:32;;;;;;;2.97;2.33;;;;;;;;;;7380941;19;20145;-81
2022/07/04 17:15:00;;;;;;;4.00;2.28;;;;;;;;;;7376592;19;20129;-82
2022/07/04 17:17:26;;;;;;;2.45;2.25;;;;;;;;;;7379346;19;20137;-81
2022/07/04 17:19:55;;;;;;;3.05;2.50;;;;;;;;;;7375165;19;20137;-81
2022/07/04 17:22:20;;;;;;;3.92;2.90;;;;;;;;;;7381097;19;20149;-81
2022/07/04 17:24:46;;;;;;;4.50;2.50;;;;;;;;;;7382506;19;20160;-81
2022/07/04 17:27:11;;;;;;;2.55;2.08;;;;;;;;;;7371937;19;20157;-81
2022/07/04 17:29:36;;;;;;;2.90;2.70;;;;;;;;;;7381780;19;20567;-81
2022/07/04 17:32:03;;;;;;;3.20;2.40;;;;;;;;;;7365349;19;20749;-82
2022/07/04 17:34:28;;;;;;;6.78;2.85;;;;;;;;;;7379141;19;20196;-81
2022/07/04 17:36:53;;;;;;;4.82;3.22;;;;;;;;;;7393807;19;20225;-80
2022/07/04 17:39:19;;;;;;;3.17;2.55;;;;;;;;;;7392977;19;20124;-82
2022/07/04 17:41:44;;;;;;;4.45;3.20;;;;;;;;;;7386371;19;20180;-82
2022/07/04 17:44:11;;;;;;;2.65;2.45;;;;;;;;;;7398028;19;20613;-80
2022/07/04 17:46:39;;;;;;;3.75;2.20;;;;;;;;;;7392481;19;20153;-81
2022/07/04 17:49:05;;;;;;;4.00;2.20;;;;;;;;;;7399580;19;20123;-83
